createdAt,value
2023-02-18T00:01:26.619Z,1026.43
2023-02-18T00:03:26.643Z,1026.41
2023-02-18T00:05:26.610Z,1026.39
2023-02-18T00:07:26.654Z,1026.39
2023-02-18T00:09:26.627Z,1026.41
2023-02-18T00:11:26.687Z,1026.39
2023-02-18T00:13:26.640Z,1026.42
2023-02-18T00:15:56.726Z,1026.42
2023-02-18T00:17:56.627Z,1026.36
2023-02-18T00:19:56.742Z,1026.36
2023-02-18T00:21:56.620Z,1026.37
2023-02-18T00:23:56.612Z,1026.31
2023-02-18T00:25:56.621Z,1026.28
2023-02-18T00:27:56.715Z,1026.30
2023-02-18T00:29:56.693Z,1026.30
2023-02-18T00:31:56.730Z,1026.24
2023-02-18T00:33:56.618Z,1026.24
2023-02-18T00:35:56.620Z,1026.17
2023-02-18T00:37:56.669Z,1026.17
2023-02-18T00:39:56.663Z,1026.17
2023-02-18T00:41:56.666Z,1026.17
2023-02-18T00:43:56.645Z,1026.21
2023-02-18T00:45:56.641Z,1026.29
2023-02-18T00:47:56.743Z,1026.13
2023-02-18T00:49:56.627Z,1026.13
2023-02-18T00:51:56.651Z,1026.21
2023-02-18T00:53:56.642Z,1026.22
2023-02-18T00:55:56.643Z,1026.18
2023-02-18T00:57:56.694Z,1026.18
2023-02-18T00:59:56.646Z,1026.18
2023-02-18T01:01:56.681Z,1026.18
2023-02-18T01:03:56.772Z,1026.21
2023-02-18T01:05:56.672Z,1026.28
2023-02-18T01:07:56.665Z,1026.28
2023-02-18T01:09:56.640Z,1026.25
2023-02-18T01:11:56.656Z,1026.15
2023-02-18T01:13:56.652Z,1026.16
2023-02-18T01:15:56.802Z,1026.23
2023-02-18T01:17:56.660Z,1026.23
2023-02-18T01:19:56.846Z,1026.15
2023-02-18T01:21:56.683Z,1026.15
2023-02-18T01:23:56.721Z,1026.19
2023-02-18T01:25:56.677Z,1026.19
2023-02-18T01:27:56.659Z,1026.24
2023-02-18T01:29:56.702Z,1026.12
2023-02-18T01:31:56.716Z,1026.18
2023-02-18T01:33:56.767Z,1026.08
2023-02-18T01:35:56.681Z,1026.08
2023-02-18T01:37:56.750Z,1026.10
2023-02-18T01:39:56.744Z,1026.19
2023-02-18T01:41:56.716Z,1026.14
2023-02-18T01:43:56.742Z,1026.14
2023-02-18T01:45:57.831Z,1026.14
2023-02-18T01:47:56.753Z,1026.12
2023-02-18T01:49:56.769Z,1026.07
2023-02-18T01:51:56.665Z,1026.09
2023-02-18T01:53:56.758Z,1026.09
2023-02-18T01:58:08.862Z,1026.08
2023-02-18T02:00:08.922Z,1026.05
2023-02-18T02:02:08.894Z,1026.05
2023-02-18T02:04:08.966Z,1026.05
2023-02-18T02:06:09.092Z,1026.03
2023-02-18T02:08:08.855Z,1025.99
2023-02-18T02:10:08.860Z,1026.02
2023-02-18T02:12:08.894Z,1026.02
2023-02-18T02:14:08.892Z,1026.02
2023-02-18T02:16:09.392Z,1025.94
2023-02-18T02:18:08.857Z,1025.89
2023-02-18T02:20:08.887Z,1025.81
2023-02-18T02:22:08.876Z,1025.81
2023-02-18T02:24:08.872Z,1025.82
2023-02-18T02:26:09.130Z,1025.80
2023-02-18T02:28:08.887Z,1025.77
2023-02-18T02:30:08.965Z,1025.76
2023-02-18T02:32:08.881Z,1025.76
2023-02-18T02:34:08.863Z,1025.75
2023-02-18T02:36:09.073Z,1025.64
2023-02-18T02:38:08.892Z,1025.58
2023-02-18T02:40:08.893Z,1025.58
2023-02-18T02:42:08.878Z,1025.58
2023-02-18T02:44:08.877Z,1025.58
2023-02-18T02:46:09.330Z,1025.58
2023-02-18T02:48:08.979Z,1025.57
2023-02-18T02:50:09.013Z,1025.63
2023-02-18T02:52:08.895Z,1025.63
2023-02-18T02:54:08.902Z,1025.57
2023-02-18T02:56:09.116Z,1025.49
2023-02-18T02:58:08.943Z,1025.49
2023-02-18T03:00:08.904Z,1025.49
2023-02-18T03:02:38.983Z,1025.39
2023-02-18T03:04:38.899Z,1025.39
2023-02-18T03:06:38.933Z,1025.24
2023-02-18T03:08:38.904Z,1025.24
2023-02-18T03:10:38.955Z,1025.27
2023-02-18T03:12:38.899Z,1025.17
2023-02-18T03:14:38.969Z,1025.17
2023-02-18T03:16:38.946Z,1025.19
2023-02-18T03:18:38.910Z,1025.23
2023-02-18T03:20:39.032Z,1025.20
2023-02-18T03:22:38.920Z,1025.20
2023-02-18T03:24:38.915Z,1025.20
2023-02-18T03:26:38.939Z,1025.23
2023-02-18T03:28:38.932Z,1025.23
2023-02-18T03:30:38.923Z,1025.21
2023-02-18T03:32:39.015Z,1025.21
2023-02-18T03:34:38.918Z,1025.15
2023-02-18T03:36:38.932Z,1025.25
2023-02-18T03:38:38.908Z,1025.17
2023-02-18T03:40:38.939Z,1025.19
2023-02-18T03:42:38.922Z,1025.19
2023-02-18T03:44:38.979Z,1025.24
2023-02-18T03:46:38.918Z,1025.16
2023-02-18T03:48:38.922Z,1025.20
2023-02-18T03:50:39.022Z,1025.13
2023-02-18T03:52:38.943Z,1025.13
2023-02-18T03:54:39.067Z,1025.17
2023-02-18T03:56:38.940Z,1025.24
2023-02-18T03:58:38.978Z,1025.28
2023-02-18T04:00:38.922Z,1025.28
2023-02-18T04:02:38.938Z,1025.24
2023-02-18T04:04:39.097Z,1025.24
2023-02-18T04:06:38.934Z,1025.24
2023-02-18T04:08:38.953Z,1025.24
2023-02-18T04:10:38.941Z,1025.24
2023-02-18T04:12:39.143Z,1025.18
2023-02-18T04:14:38.945Z,1025.19
2023-02-18T04:16:39.006Z,1025.15
2023-02-18T04:18:38.950Z,1025.15
2023-02-18T04:20:38.943Z,1025.15
2023-02-18T04:22:39.071Z,1025.14
2023-02-18T04:24:38.946Z,1025.17
2023-02-18T04:26:38.983Z,1025.16
2023-02-18T04:28:38.970Z,1025.16
2023-02-18T04:30:39.109Z,1025.11
2023-02-18T04:32:38.952Z,1025.04
2023-02-18T04:34:38.960Z,1024.92
2023-02-18T04:36:38.964Z,1024.92
2023-02-18T04:38:39.099Z,1024.92
2023-02-18T04:40:38.955Z,1024.97
2023-02-18T04:42:38.943Z,1024.91
2023-02-18T04:44:38.960Z,1024.91
2023-02-18T04:46:39.028Z,1024.83
2023-02-18T04:48:38.970Z,1024.83
2023-02-18T04:50:38.960Z,1024.87
2023-02-18T04:52:38.970Z,1024.77
2023-02-18T04:54:38.961Z,1024.78
2023-02-18T04:56:38.950Z,1024.78
2023-02-18T04:58:38.950Z,1024.82
2023-02-18T05:01:09.069Z,1024.79
2023-02-18T05:03:08.975Z,1024.91
2023-02-18T05:05:09.022Z,1024.98
2023-02-18T05:07:09.110Z,1024.98
2023-02-18T05:09:09.032Z,1024.95
2023-02-18T05:11:09.126Z,1024.96
2023-02-18T05:13:08.981Z,1024.93
2023-02-18T05:15:09.064Z,1025.05
2023-02-18T05:17:09.001Z,1025.05
2023-02-18T05:19:08.976Z,1025.12
2023-02-18T05:21:08.979Z,1025.13
2023-02-18T05:23:09.107Z,1025.07
2023-02-18T05:25:09.014Z,1025.07
2023-02-18T05:27:08.997Z,1025.07
2023-02-18T05:29:09.008Z,1024.92
2023-02-18T05:31:09.076Z,1025.03
2023-02-18T05:33:09.009Z,1025.06
2023-02-18T05:35:09.006Z,1025.06
2023-02-18T05:37:09.112Z,1025.01
2023-02-18T05:39:09.102Z,1024.94
2023-02-18T05:41:09.028Z,1025.00
2023-02-18T05:43:09.001Z,1025.13
2023-02-18T05:45:09.123Z,1025.13
2023-02-18T05:47:11.359Z,1025.09
2023-02-18T05:49:09.006Z,1025.02
2023-02-18T05:51:09.021Z,1024.99
2023-02-18T05:53:09.016Z,1024.92
2023-02-18T05:55:09.020Z,1024.92
2023-02-18T05:57:09.050Z,1025.00
2023-02-18T05:59:09.036Z,1025.02
2023-02-18T06:01:09.034Z,1025.07
2023-02-18T06:03:09.072Z,1025.07
2023-02-18T06:05:09.173Z,1025.07
2023-02-18T06:07:09.123Z,1025.07
2023-02-18T06:09:09.111Z,1025.02
2023-02-18T06:11:09.060Z,1024.91
2023-02-18T06:13:09.041Z,1024.91
2023-02-18T06:15:09.030Z,1025.07
2023-02-18T06:17:09.017Z,1025.03
2023-02-18T06:19:09.010Z,1025.07
2023-02-18T06:21:09.052Z,1025.08
2023-02-18T06:23:11.583Z,1025.08
2023-02-18T06:25:09.141Z,1025.10
2023-02-18T06:27:09.077Z,1025.09
2023-02-18T06:29:09.046Z,1025.15
2023-02-18T06:31:09.143Z,1025.15
2023-02-18T06:33:09.145Z,1025.15
2023-02-18T06:35:09.104Z,1025.27
2023-02-18T06:37:09.116Z,1025.27
2023-02-18T06:39:09.127Z,1025.16
2023-02-18T06:41:09.040Z,1025.16
2023-02-18T06:43:09.040Z,1025.22
2023-02-18T06:45:09.051Z,1025.29
2023-02-18T06:47:09.017Z,1025.29
2023-02-18T06:49:09.236Z,1025.22
2023-02-18T06:51:09.060Z,1025.22
2023-02-18T06:53:39.095Z,1025.30
2023-02-18T06:55:39.141Z,1025.30
2023-02-18T06:57:39.076Z,1025.32
2023-02-18T06:59:39.032Z,1025.23
2023-02-18T07:01:39.074Z,1025.16
2023-02-18T07:03:39.154Z,1025.16
2023-02-18T07:05:39.138Z,1025.11
2023-02-18T07:07:39.131Z,1025.19
2023-02-18T07:09:39.160Z,1025.07
2023-02-18T07:11:39.076Z,1025.01
2023-02-18T07:13:39.104Z,1025.01
2023-02-18T07:15:39.091Z,1025.11
2023-02-18T07:17:39.046Z,1025.08
2023-02-18T07:19:39.058Z,1024.98
2023-02-18T07:21:39.056Z,1024.90
2023-02-18T07:23:39.317Z,1024.90
2023-02-18T07:25:39.170Z,1024.85
2023-02-18T07:27:39.226Z,1024.85
2023-02-18T07:29:39.144Z,1024.88
2023-02-18T07:31:39.209Z,1024.88
2023-02-18T07:33:39.054Z,1024.83
2023-02-18T07:35:39.054Z,1024.79
2023-02-18T07:37:39.070Z,1024.74
2023-02-18T07:39:39.201Z,1024.78
2023-02-18T07:41:39.166Z,1024.78
2023-02-18T07:43:39.203Z,1024.69
2023-02-18T07:45:39.163Z,1024.68
2023-02-18T07:47:39.121Z,1024.64
2023-02-18T07:49:39.144Z,1024.70
2023-02-18T07:51:39.145Z,1024.70
2023-02-18T07:53:39.162Z,1024.68
2023-02-18T07:55:39.200Z,1024.62
2023-02-18T07:57:39.190Z,1024.51
2023-02-18T07:59:39.110Z,1024.51
2023-02-18T08:01:39.084Z,1024.51
2023-02-18T08:03:39.082Z,1024.62
2023-02-18T08:05:39.379Z,1024.55
2023-02-18T08:07:39.176Z,1024.55
2023-02-18T08:09:39.189Z,1024.55
2023-02-18T08:11:39.107Z,1024.38
2023-02-18T08:13:39.223Z,1024.48
2023-02-18T08:15:39.089Z,1024.47
2023-02-18T08:17:39.140Z,1024.47
2023-02-18T08:19:39.165Z,1024.47
2023-02-18T08:21:39.155Z,1024.46
2023-02-18T08:23:39.126Z,1024.46
2023-02-18T08:25:39.166Z,1024.37
2023-02-18T08:27:39.140Z,1024.37
2023-02-18T08:29:39.119Z,1024.43
2023-02-18T08:31:39.297Z,1024.43
2023-02-18T08:33:39.145Z,1024.44
2023-02-18T08:35:39.109Z,1024.42
2023-02-18T08:37:53.852Z,1024.42
2023-02-18T08:39:39.884Z,1024.31
2023-02-18T08:41:39.294Z,1024.35
2023-02-18T08:43:39.245Z,1024.30
2023-02-18T08:46:09.204Z,1024.09
2023-02-18T08:48:18.659Z,1024.09
2023-02-18T08:50:09.191Z,1024.09
2023-02-18T08:54:09.197Z,1024.12
2023-02-18T08:56:09.133Z,1024.12
2023-02-18T08:59:53.706Z,1024.01
2023-02-18T09:01:53.695Z,1024.09
2023-02-18T09:03:53.773Z,1023.97
2023-02-18T09:05:53.809Z,1023.97
2023-02-18T09:07:53.642Z,1023.91
2023-02-18T09:09:53.760Z,1023.82
2023-02-18T09:11:53.686Z,1024.00
2023-02-18T09:13:53.674Z,1024.00
2023-02-18T09:15:53.801Z,1024.00
2023-02-18T09:17:53.720Z,1024.09
2023-02-18T09:19:53.718Z,1024.01
2023-02-18T09:21:53.747Z,1024.01
2023-02-18T09:23:53.688Z,1024.07
2023-02-18T09:25:53.665Z,1024.07
2023-02-18T09:27:53.644Z,1023.79
2023-02-18T09:29:53.706Z,1023.79
2023-02-18T09:31:53.862Z,1023.95
2023-02-18T09:33:53.758Z,1023.95
2023-02-18T09:35:53.640Z,1023.96
2023-02-18T09:37:53.638Z,1023.97
2023-02-18T09:40:23.765Z,1023.97
2023-02-18T09:42:23.730Z,1023.85
2023-02-18T09:44:23.656Z,1023.85
2023-02-18T09:46:23.763Z,1023.68
2023-02-18T09:48:26.414Z,1023.74
2023-02-18T09:50:23.758Z,1023.67
2023-02-18T09:52:23.793Z,1023.51
2023-02-18T09:54:23.687Z,1023.51
2023-02-18T09:56:23.679Z,1023.61
2023-02-18T09:58:23.930Z,1023.41
2023-02-18T10:00:23.716Z,1023.40
2023-02-18T10:02:23.748Z,1023.40
2023-02-18T10:04:23.767Z,1023.42
2023-02-18T10:06:23.810Z,1023.42
2023-02-18T10:08:23.776Z,1023.47
2023-02-18T10:10:23.714Z,1023.47
2023-02-18T10:12:24.739Z,1023.47
2023-02-18T10:14:23.750Z,1023.56
2023-02-18T10:16:23.804Z,1023.56
2023-02-18T10:18:23.755Z,1023.46
2023-02-18T10:20:23.789Z,1023.50
2023-02-18T10:22:23.775Z,1023.50
2023-02-18T10:24:23.703Z,1023.59
2023-02-18T10:26:23.691Z,1023.50
2023-02-18T10:28:23.700Z,1023.70
2023-02-18T10:30:24.826Z,1023.70
2023-02-18T10:32:24.789Z,1023.70
2023-02-18T10:34:23.694Z,1023.70
2023-02-18T10:36:23.782Z,1023.78
2023-02-18T10:38:23.782Z,1023.64
2023-02-18T10:40:23.699Z,1023.64
2023-02-18T10:42:23.726Z,1023.65
2023-02-18T10:44:23.728Z,1023.62
2023-02-18T10:46:23.769Z,1023.73
2023-02-18T10:48:23.763Z,1023.75
2023-02-18T10:50:23.798Z,1023.75
2023-02-18T10:52:23.793Z,1023.75
2023-02-18T10:54:23.807Z,1023.57
2023-02-18T10:56:23.735Z,1023.57
2023-02-18T10:58:23.686Z,1023.41
2023-02-18T11:00:23.756Z,1023.41
2023-02-18T11:02:23.750Z,1023.71
2023-02-18T11:04:23.829Z,1023.60
2023-02-18T11:06:23.803Z,1023.58
2023-02-18T11:08:23.796Z,1023.58
2023-02-18T11:10:23.811Z,1023.67
2023-02-18T11:12:23.750Z,1023.60
2023-02-18T11:14:23.768Z,1023.61
2023-02-18T11:16:23.796Z,1023.67
2023-02-18T11:18:23.753Z,1023.67
2023-02-18T11:20:23.801Z,1023.54
2023-02-18T11:22:23.829Z,1023.46
2023-02-18T11:24:23.820Z,1023.33
2023-02-18T11:26:23.724Z,1023.36
2023-02-18T11:28:23.727Z,1023.36
2023-02-18T11:30:23.899Z,1023.14
2023-02-18T11:32:23.777Z,1023.14
2023-02-18T11:34:53.796Z,1022.96
2023-02-18T11:36:53.706Z,1022.96
2023-02-18T11:38:53.821Z,1022.97
2023-02-18T11:40:53.845Z,1022.97
2023-02-18T11:42:53.751Z,1022.87
2023-02-18T11:44:53.795Z,1022.80
2023-02-18T11:46:53.748Z,1022.72
2023-02-18T11:48:53.822Z,1022.71
2023-02-18T11:50:53.831Z,1022.71
2023-02-18T11:52:53.853Z,1022.71
2023-02-18T11:54:53.748Z,1022.67
2023-02-18T11:56:53.955Z,1022.73
2023-02-18T11:58:53.715Z,1022.73
2023-02-18T12:00:53.834Z,1022.73
2023-02-18T12:02:54.812Z,1022.54
2023-02-18T12:04:54.874Z,1022.63
2023-02-18T12:06:53.978Z,1022.61
2023-02-18T12:08:53.836Z,1022.61
2023-02-18T12:10:53.788Z,1022.73
2023-02-18T12:12:53.876Z,1022.73
2023-02-18T12:14:53.778Z,1022.73
2023-02-18T12:16:53.813Z,1022.45
2023-02-18T12:18:53.818Z,1022.45
2023-02-18T12:20:53.856Z,1022.62
2023-02-18T12:22:53.838Z,1022.55
2023-02-18T12:24:53.798Z,1022.44
2023-02-18T12:26:53.789Z,1022.54
2023-02-18T12:28:53.757Z,1022.54
2023-02-18T12:30:53.873Z,1022.54
2023-02-18T12:32:53.763Z,1022.36
2023-02-18T12:34:53.842Z,1022.41
2023-02-18T12:36:53.813Z,1022.41
2023-02-18T12:38:53.904Z,1022.52
2023-02-18T12:40:53.940Z,1022.44
2023-02-18T12:42:53.885Z,1022.45
2023-02-18T12:44:53.788Z,1022.45
2023-02-18T12:46:53.810Z,1022.45
2023-02-18T12:48:53.802Z,1022.51
2023-02-18T12:50:53.872Z,1022.51
2023-02-18T12:52:53.989Z,1022.51
2023-02-18T12:54:53.945Z,1022.51
2023-02-18T12:56:54.106Z,1022.51
2023-02-18T12:58:54.175Z,1022.44
2023-02-18T13:00:54.041Z,1022.46
2023-02-18T13:02:53.911Z,1022.48
2023-02-18T13:04:53.805Z,1022.48
2023-02-18T13:06:53.802Z,1022.69
2023-02-18T13:08:53.810Z,1022.69
2023-02-18T13:10:54.012Z,1022.69
2023-02-18T13:12:54.029Z,1022.58
2023-02-18T13:14:53.802Z,1022.58
2023-02-18T13:16:53.918Z,1022.52
2023-02-18T13:18:53.856Z,1022.59
2023-02-18T13:20:53.859Z,1022.57
2023-02-18T13:22:53.884Z,1022.60
2023-02-18T13:24:53.894Z,1022.60
2023-02-18T13:26:53.928Z,1022.61
2023-02-18T13:28:53.824Z,1022.61
2023-02-18T13:31:24.056Z,1022.69
2023-02-18T13:33:23.803Z,1022.69
2023-02-18T13:35:23.802Z,1022.69
2023-02-18T13:37:23.787Z,1022.63
2023-02-18T13:39:23.851Z,1022.50
2023-02-18T13:41:23.907Z,1022.56
2023-02-18T13:43:23.830Z,1022.56
2023-02-18T13:45:23.959Z,1022.55
2023-02-18T13:47:23.963Z,1022.51
2023-02-18T13:49:23.880Z,1022.46
2023-02-18T13:51:23.868Z,1022.44
2023-02-18T13:53:23.806Z,1022.44
2023-02-18T13:55:23.918Z,1022.43
2023-02-18T13:57:23.918Z,1022.39
2023-02-18T13:59:23.810Z,1022.39
2023-02-18T14:01:23.951Z,1022.45
2023-02-18T14:03:23.921Z,1022.45
2023-02-18T14:05:23.871Z,1022.34
2023-02-18T14:07:23.885Z,1022.34
2023-02-18T14:09:24.075Z,1022.28
2023-02-18T14:11:24.740Z,1022.28
2023-02-18T14:13:23.954Z,1022.18
2023-02-18T14:15:23.878Z,1022.18
2023-02-18T14:17:23.829Z,1022.16
2023-02-18T14:19:23.884Z,1022.23
2023-02-18T14:21:23.899Z,1022.23
2023-02-18T14:23:23.913Z,1022.01
2023-02-18T14:25:23.932Z,1022.14
2023-02-18T14:27:24.125Z,1022.18
2023-02-18T14:29:23.864Z,1022.00
2023-02-18T14:31:29.882Z,1022.00
2023-02-18T14:33:23.850Z,1022.00
2023-02-18T14:35:23.879Z,1022.12
2023-02-18T14:37:23.897Z,1022.18
2023-02-18T14:39:23.920Z,1022.18
2023-02-18T14:41:23.935Z,1022.18
2023-02-18T14:43:23.971Z,1022.19
2023-02-18T14:45:23.863Z,1022.19
2023-02-18T14:47:23.994Z,1022.16
2023-02-18T14:49:23.924Z,1022.16
2023-02-18T14:51:23.906Z,1022.12
2023-02-18T14:53:23.938Z,1022.01
2023-02-18T14:55:23.933Z,1022.01
2023-02-18T14:57:23.964Z,1022.01
2023-02-18T14:59:23.866Z,1022.01
2023-02-18T15:01:23.905Z,1021.88
2023-02-18T15:03:24.010Z,1021.84
2023-02-18T15:05:23.926Z,1021.84
2023-02-18T15:07:23.928Z,1021.84
2023-02-18T15:09:23.996Z,1021.91
2023-02-18T15:11:23.976Z,1021.85
2023-02-18T15:13:23.987Z,1021.95
2023-02-18T15:15:23.974Z,1021.92
2023-02-18T15:17:23.952Z,1021.92
2023-02-18T15:19:24.182Z,1022.02
2023-02-18T15:21:23.950Z,1021.98
2023-02-18T15:23:23.939Z,1021.98
2023-02-18T15:25:53.991Z,1021.99
2023-02-18T15:27:53.985Z,1021.99
2023-02-18T15:29:54.272Z,1022.04
2023-02-18T15:31:54.433Z,1022.04
2023-02-18T15:33:54.181Z,1022.05
2023-02-18T15:35:54.300Z,1022.05
2023-02-18T15:37:54.286Z,1022.05
2023-02-18T15:39:54.208Z,1022.05
2023-02-18T15:41:54.273Z,1022.13
2023-02-18T15:43:53.985Z,1022.16
2023-02-18T15:45:53.985Z,1022.17
2023-02-18T15:47:54.002Z,1022.12
2023-02-18T15:49:53.988Z,1022.12
2023-02-18T15:52:08.046Z,1022.10
2023-02-18T15:53:54.023Z,1022.08
2023-02-18T15:55:53.970Z,1022.09
2023-02-18T15:57:53.980Z,1022.01
2023-02-18T15:59:55.077Z,1022.01
2023-02-18T16:01:55.119Z,1022.01
2023-02-18T16:03:53.941Z,1022.01
2023-02-18T16:05:53.989Z,1021.99
2023-02-18T16:10:02.487Z,1021.99
2023-02-18T16:12:02.483Z,1022.08
2023-02-18T16:14:02.537Z,1022.08
2023-02-18T16:16:02.524Z,1022.08
2023-02-18T16:18:02.447Z,1022.08
2023-02-18T16:20:05.282Z,1022.08
2023-02-18T16:22:02.440Z,1022.10
2023-02-18T16:24:02.495Z,1022.15
2023-02-18T16:26:02.470Z,1022.05
2023-02-18T16:28:02.504Z,1022.05
2023-02-18T16:30:02.632Z,1021.99
2023-02-18T16:32:02.629Z,1022.06
2023-02-18T16:34:02.676Z,1022.03
2023-02-18T16:36:02.432Z,1022.03
2023-02-18T16:38:02.459Z,1022.04
2023-02-18T16:40:04.030Z,1021.98
2023-02-18T16:42:02.536Z,1022.08
2023-02-18T16:44:02.521Z,1022.10
2023-02-18T16:46:02.594Z,1022.10
2023-02-18T16:48:02.568Z,1022.05
2023-02-18T16:50:02.683Z,1022.09
2023-02-18T16:52:02.499Z,1022.09
2023-02-18T16:54:02.484Z,1022.09
2023-02-18T16:56:02.537Z,1022.09
2023-02-18T16:58:02.528Z,1022.09
2023-02-18T17:00:02.551Z,1022.19
2023-02-18T17:02:02.560Z,1022.19
2023-02-18T17:04:02.589Z,1022.28
2023-02-18T17:06:02.545Z,1022.28
2023-02-18T17:08:02.472Z,1022.28
2023-02-18T17:10:02.527Z,1022.41
2023-02-18T17:12:02.708Z,1022.42
2023-02-18T17:14:02.538Z,1022.42
2023-02-18T17:16:02.570Z,1022.42
2023-02-18T17:18:02.741Z,1022.50
2023-02-18T17:20:02.552Z,1022.54
2023-02-18T17:22:02.608Z,1022.51
2023-02-18T17:24:02.510Z,1022.51
2023-02-18T17:26:02.534Z,1022.57
2023-02-18T17:28:02.514Z,1022.53
2023-02-18T17:30:02.606Z,1022.63
2023-02-18T17:32:02.660Z,1022.62
2023-02-18T17:34:02.570Z,1022.62
2023-02-18T17:36:02.552Z,1022.75
2023-02-18T17:38:02.486Z,1022.75
2023-02-18T17:40:02.522Z,1022.71
2023-02-18T17:42:02.560Z,1022.71
2023-02-18T17:44:02.528Z,1022.77
2023-02-18T17:46:02.588Z,1022.74
2023-02-18T17:48:32.551Z,1022.80
2023-02-18T17:50:32.593Z,1022.83
2023-02-18T17:52:32.611Z,1022.83
2023-02-18T17:54:32.525Z,1022.82
2023-02-18T17:56:32.646Z,1022.87
2023-02-18T17:58:32.604Z,1022.87
2023-02-18T18:00:32.625Z,1023.02
2023-02-18T18:02:32.674Z,1023.02
2023-02-18T18:04:32.702Z,1023.02
2023-02-18T18:06:32.507Z,1023.05
2023-02-18T18:08:32.487Z,1023.05
2023-02-18T18:10:32.540Z,1023.05
2023-02-18T18:12:32.584Z,1023.05
2023-02-18T18:14:32.579Z,1023.15
2023-02-18T18:16:32.579Z,1023.21
2023-02-18T18:18:32.625Z,1023.21
2023-02-18T18:20:32.627Z,1023.21
2023-02-18T18:22:32.535Z,1023.21
2023-02-18T18:24:32.520Z,1023.29
2023-02-18T18:26:32.555Z,1023.32
2023-02-18T18:28:33.408Z,1023.35
2023-02-18T18:30:32.780Z,1023.35
2023-02-18T18:32:32.602Z,1023.35
2023-02-18T18:34:32.623Z,1023.42
2023-02-18T18:36:32.624Z,1023.47
2023-02-18T18:38:32.568Z,1023.47
2023-02-18T18:40:32.563Z,1023.50
2023-02-18T18:42:32.596Z,1023.50
2023-02-18T18:44:32.627Z,1023.52
2023-02-18T18:46:32.657Z,1023.52
2023-02-18T18:48:32.675Z,1023.52
2023-02-18T18:50:32.643Z,1023.52
2023-02-18T18:52:32.660Z,1023.50
2023-02-18T18:54:32.623Z,1023.52
2023-02-18T18:56:32.575Z,1023.49
2023-02-18T18:58:32.640Z,1023.49
2023-02-18T19:00:32.590Z,1023.49
2023-02-18T19:02:32.637Z,1023.54
2023-02-18T19:04:32.707Z,1023.54
2023-02-18T19:06:32.762Z,1023.50
2023-02-18T19:08:32.610Z,1023.50
2023-02-18T19:10:32.656Z,1023.52
2023-02-18T19:12:32.716Z,1023.51
2023-02-18T19:14:32.608Z,1023.51
2023-02-18T19:16:32.590Z,1023.51
2023-02-18T19:18:32.626Z,1023.52
2023-02-18T19:20:32.691Z,1023.52
2023-02-18T19:22:32.645Z,1023.52
2023-02-18T19:24:32.583Z,1023.61
2023-02-18T19:26:32.568Z,1023.61
2023-02-18T19:28:32.639Z,1023.61
2023-02-18T19:30:32.694Z,1023.64
2023-02-18T19:32:32.631Z,1023.67
2023-02-18T19:34:32.698Z,1023.67
2023-02-18T19:36:32.720Z,1023.67
2023-02-18T19:39:02.586Z,1023.67
2023-02-18T19:41:02.586Z,1023.67
2023-02-18T19:43:02.635Z,1023.55
2023-02-18T19:45:02.635Z,1023.54
2023-02-18T19:47:02.634Z,1023.57
2023-02-18T19:49:02.655Z,1023.57
2023-02-18T19:51:02.682Z,1023.56
2023-02-18T19:53:02.698Z,1023.59
2023-02-18T19:55:02.594Z,1023.59
2023-02-18T19:57:02.613Z,1023.53
2023-02-18T19:59:02.641Z,1023.53
2023-02-18T20:01:02.639Z,1023.53
2023-02-18T20:03:02.769Z,1023.61
2023-02-18T20:05:02.681Z,1023.61
2023-02-18T20:07:02.686Z,1023.61
2023-02-18T20:09:02.609Z,1023.61
2023-02-18T20:11:02.784Z,1023.60
2023-02-18T20:13:02.629Z,1023.60
2023-02-18T20:15:02.613Z,1023.60
2023-02-18T20:17:02.646Z,1023.60
2023-02-18T20:19:02.853Z,1023.52
2023-02-18T20:21:02.706Z,1023.52
2023-02-18T20:23:02.692Z,1023.60
2023-02-18T20:25:02.605Z,1023.64
2023-02-18T20:27:02.932Z,1023.64
2023-02-18T20:29:02.628Z,1023.64
2023-02-18T20:31:02.683Z,1023.62
2023-02-18T20:33:02.673Z,1023.57
2023-02-18T20:35:02.669Z,1023.57
2023-02-18T20:37:02.599Z,1023.57
2023-02-18T20:39:15.821Z,1023.57
2023-02-18T20:41:02.610Z,1023.56
2023-02-18T20:43:02.647Z,1023.59
2023-02-18T20:45:02.640Z,1023.59
2023-02-18T20:47:02.671Z,1023.57
2023-02-18T20:49:02.703Z,1023.58
2023-02-18T20:51:02.705Z,1023.58
2023-02-18T20:53:02.617Z,1023.58
2023-02-18T20:55:02.628Z,1023.58
2023-02-18T20:57:02.650Z,1023.59
2023-02-18T20:59:02.651Z,1023.58
2023-02-18T21:01:02.666Z,1023.58
2023-02-18T21:03:02.762Z,1023.59
2023-02-18T21:05:02.701Z,1023.59
2023-02-18T21:07:02.717Z,1023.57
2023-02-18T21:09:02.616Z,1023.49
2023-02-18T21:11:02.616Z,1023.49
2023-02-18T21:13:02.724Z,1023.49
2023-02-18T21:15:02.654Z,1023.55
2023-02-18T21:17:02.680Z,1023.51
2023-02-18T21:19:02.709Z,1023.51
2023-02-18T21:21:02.713Z,1023.56
2023-02-18T21:23:02.617Z,1023.56
2023-02-18T21:25:02.733Z,1023.56
2023-02-18T21:27:02.627Z,1023.56
2023-02-18T21:29:32.764Z,1023.50
2023-02-18T21:31:32.741Z,1023.50
2023-02-18T21:33:32.698Z,1023.50
2023-02-18T21:35:32.739Z,1023.50
2023-02-18T21:37:32.726Z,1023.51
2023-02-18T21:39:32.649Z,1023.51
2023-02-18T21:41:32.663Z,1023.51
2023-02-18T21:43:32.721Z,1023.51
2023-02-18T21:45:32.663Z,1023.53
2023-02-18T21:47:32.687Z,1023.53
2023-02-18T21:49:32.703Z,1023.57
2023-02-18T21:51:32.765Z,1023.57
2023-02-18T21:53:32.730Z,1023.53
2023-02-18T21:55:32.770Z,1023.54
2023-02-18T21:57:32.636Z,1023.54
2023-02-18T21:59:32.673Z,1023.51
2023-02-18T22:01:32.708Z,1023.51
2023-02-18T22:03:32.907Z,1023.51
2023-02-18T22:05:32.734Z,1023.51
2023-02-18T22:07:32.741Z,1023.50
2023-02-18T22:09:32.666Z,1023.50
2023-02-18T22:11:32.809Z,1023.43
2023-02-18T22:13:32.673Z,1023.43
2023-02-18T22:15:32.690Z,1023.42
2023-02-18T22:17:32.696Z,1023.42
2023-02-18T22:19:32.953Z,1023.42
2023-02-18T22:21:32.736Z,1023.40
2023-02-18T22:23:32.762Z,1023.40
2023-02-18T22:25:32.710Z,1023.38
2023-02-18T22:27:32.661Z,1023.36
2023-02-18T22:29:32.998Z,1023.36
2023-02-18T22:31:32.933Z,1023.36
2023-02-18T22:33:32.711Z,1023.38
2023-02-18T22:35:32.788Z,1023.33
2023-02-18T22:37:32.727Z,1023.31
2023-02-18T22:39:32.738Z,1023.31
2023-02-18T22:41:32.678Z,1023.28
2023-02-18T22:43:32.745Z,1023.20
2023-02-18T22:45:32.760Z,1023.17
2023-02-18T22:47:32.668Z,1023.17
2023-02-18T22:49:32.796Z,1023.14
2023-02-18T22:51:32.650Z,1023.14
2023-02-18T22:53:32.640Z,1023.15
2023-02-18T22:55:32.762Z,1023.13
2023-02-18T22:57:32.719Z,1023.13
2023-02-18T22:59:32.757Z,1023.07
2023-02-18T23:01:32.947Z,1023.04
2023-02-18T23:03:32.808Z,1023.04
2023-02-18T23:05:32.813Z,1023.04
2023-02-18T23:07:32.842Z,1023.04
2023-02-18T23:09:32.826Z,1023.04
2023-02-18T23:11:32.664Z,1023.00
2023-02-18T23:13:32.753Z,1022.98
2023-02-18T23:15:32.680Z,1022.98
2023-02-18T23:17:32.683Z,1022.88
2023-02-18T23:20:02.752Z,1022.88
2023-02-18T23:23:55.602Z,1022.85
2023-02-18T23:25:55.625Z,1022.75
2023-02-18T23:27:55.660Z,1022.83
2023-02-18T23:29:55.571Z,1022.83
2023-02-18T23:31:55.676Z,1022.77
2023-02-18T23:33:55.572Z,1022.83
2023-02-18T23:35:55.562Z,1022.79
2023-02-18T23:37:55.568Z,1022.78
2023-02-18T23:39:55.581Z,1022.78
2023-02-18T23:41:55.604Z,1022.75
2023-02-18T23:43:55.580Z,1022.75
2023-02-18T23:45:55.634Z,1022.73
2023-02-18T23:47:55.586Z,1022.73
2023-02-18T23:49:55.603Z,1022.72
2023-02-18T23:51:55.623Z,1022.70
2023-02-18T23:53:55.570Z,1022.66
2023-02-18T23:55:55.580Z,1022.65
2023-02-18T23:57:55.578Z,1022.65
2023-02-18T23:59:55.696Z,1022.64
